sensor_id;sensor_type;location;lat;lon;timestamp;P1;durP1;ratioP1;P2;durP2;ratioP2
35424;SDS011;21537;48.226;16.400;2022-07-22T00:00:13;13.90;;;7.10;;
35424;SDS011;21537;48.226;16.400;2022-07-22T00:02:40;13.10;;;7.13;;
35424;SDS011;21537;48.226;16.400;2022-07-22T00:05:07;10.20;;;7.22;;
35424;SDS011;21537;48.226;16.400;2022-07-22T00:07:37;12.63;;;7.30;;
35424;SDS011;21537;48.226;16.400;2022-07-22T00:10:05;14.13;;;7.50;;
35424;SDS011;21537;48.226;16.400;2022-07-22T00:12:33;14.98;;;7.97;;
35424;SDS011;21537;48.226;16.400;2022-07-22T00:14:59;8.90;;;7.53;;
35424;SDS011;21537;48.226;16.400;2022-07-22T00:17:25;10.32;;;7.78;;
35424;SDS011;21537;48.226;16.400;2022-07-22T00:19:51;15.60;;;7.68;;
35424;SDS011;21537;48.226;16.400;2022-07-22T00:22:16;9.20;;;7.25;;
35424;SDS011;21537;48.226;16.400;2022-07-22T00:24:42;13.20;;;7.85;;
35424;SDS011;21537;48.226;16.400;2022-07-22T00:27:08;13.32;;;7.90;;
35424;SDS011;21537;48.226;16.400;2022-07-22T00:29:34;16.30;;;8.13;;
35424;SDS011;21537;48.226;16.400;2022-07-22T00:32:00;11.30;;;8.15;;
35424;SDS011;21537;48.226;16.400;2022-07-22T00:34:25;11.07;;;8.32;;
35424;SDS011;21537;48.226;16.400;2022-07-22T00:36:51;12.98;;;8.30;;
35424;SDS011;21537;48.226;16.400;2022-07-22T00:39:17;10.48;;;8.70;;
35424;SDS011;21537;48.226;16.400;2022-07-22T00:41:44;12.60;;;8.05;;
35424;SDS011;21537;48.226;16.400;2022-07-22T00:44:10;13.65;;;8.20;;
35424;SDS011;21537;48.226;16.400;2022-07-22T00:46:36;14.52;;;9.05;;
35424;SDS011;21537;48.226;16.400;2022-07-22T00:49:04;12.40;;;8.48;;
35424;SDS011;21537;48.226;16.400;2022-07-22T00:51:31;12.95;;;7.85;;
35424;SDS011;21537;48.226;16.400;2022-07-22T00:53:57;12.18;;;8.32;;
35424;SDS011;21537;48.226;16.400;2022-07-22T00:56:24;22.17;;;8.25;;
35424;SDS011;21537;48.226;16.400;2022-07-22T00:58:51;9.85;;;7.78;;
35424;SDS011;21537;48.226;16.400;2022-07-22T01:01:19;14.73;;;8.32;;
35424;SDS011;21537;48.226;16.400;2022-07-22T01:03:45;10.85;;;7.85;;
35424;SDS011;21537;48.226;16.400;2022-07-22T01:06:11;9.85;;;7.63;;
35424;SDS011;21537;48.226;16.400;2022-07-22T01:08:37;12.40;;;8.32;;
35424;SDS011;21537;48.226;16.400;2022-07-22T01:11:12;10.43;;;7.47;;
35424;SDS011;21537;48.226;16.400;2022-07-22T01:13:43;12.02;;;8.00;;
35424;SDS011;21537;48.226;16.400;2022-07-22T01:16:11;14.75;;;7.40;;
35424;SDS011;21537;48.226;16.400;2022-07-22T01:18:39;11.52;;;7.53;;
35424;SDS011;21537;48.226;16.400;2022-07-22T01:21:07;13.40;;;7.38;;
35424;SDS011;21537;48.226;16.400;2022-07-22T01:23:34;13.93;;;7.80;;
35424;SDS011;21537;48.226;16.400;2022-07-22T01:26:00;11.68;;;7.82;;
35424;SDS011;21537;48.226;16.400;2022-07-22T01:28:26;10.35;;;7.95;;
35424;SDS011;21537;48.226;16.400;2022-07-22T01:30:52;10.73;;;7.70;;
35424;SDS011;21537;48.226;16.400;2022-07-22T01:33:19;11.38;;;7.68;;
35424;SDS011;21537;48.226;16.400;2022-07-22T01:35:46;11.02;;;7.70;;
35424;SDS011;21537;48.226;16.400;2022-07-22T01:38:12;11.68;;;7.30;;
35424;SDS011;21537;48.226;16.400;2022-07-22T01:40:39;13.45;;;7.18;;
35424;SDS011;21537;48.226;16.400;2022-07-22T01:43:05;10.35;;;7.13;;
35424;SDS011;21537;48.226;16.400;2022-07-22T01:45:31;11.50;;;7.63;;
35424;SDS011;21537;48.226;16.400;2022-07-22T01:47:58;9.27;;;7.45;;
35424;SDS011;21537;48.226;16.400;2022-07-22T01:50:25;9.13;;;6.78;;
35424;SDS011;21537;48.226;16.400;2022-07-22T01:52:51;9.32;;;7.30;;
35424;SDS011;21537;48.226;16.400;2022-07-22T01:55:17;11.80;;;7.57;;
35424;SDS011;21537;48.226;16.400;2022-07-22T01:57:43;8.77;;;6.78;;
35424;SDS011;21537;48.226;16.400;2022-07-22T02:00:17;10.98;;;7.20;;
35424;SDS011;21537;48.226;16.400;2022-07-22T02:02:44;12.00;;;7.65;;
35424;SDS011;21537;48.226;16.400;2022-07-22T02:05:10;11.10;;;7.85;;
35424;SDS011;21537;48.226;16.400;2022-07-22T02:07:36;9.63;;;7.03;;
35424;SDS011;21537;48.226;16.400;2022-07-22T02:10:04;10.23;;;7.30;;
35424;SDS011;21537;48.226;16.400;2022-07-22T02:12:32;12.88;;;7.13;;
35424;SDS011;21537;48.226;16.400;2022-07-22T02:14:58;11.00;;;7.80;;
35424;SDS011;21537;48.226;16.400;2022-07-22T02:17:24;10.73;;;7.93;;
35424;SDS011;21537;48.226;16.400;2022-07-22T02:19:50;9.38;;;7.07;;
35424;SDS011;21537;48.226;16.400;2022-07-22T02:22:17;10.93;;;6.65;;
35424;SDS011;21537;48.226;16.400;2022-07-22T02:24:45;12.30;;;7.53;;
35424;SDS011;21537;48.226;16.400;2022-07-22T02:27:12;11.00;;;7.32;;
35424;SDS011;21537;48.226;16.400;2022-07-22T02:29:40;9.82;;;7.40;;
35424;SDS011;21537;48.226;16.400;2022-07-22T02:32:06;11.32;;;7.55;;
35424;SDS011;21537;48.226;16.400;2022-07-22T02:34:31;10.43;;;7.57;;
35424;SDS011;21537;48.226;16.400;2022-07-22T02:36:57;8.38;;;6.68;;
35424;SDS011;21537;48.226;16.400;2022-07-22T02:39:24;10.00;;;7.93;;
35424;SDS011;21537;48.226;16.400;2022-07-22T02:41:49;11.63;;;7.68;;
35424;SDS011;21537;48.226;16.400;2022-07-22T02:44:15;10.73;;;7.60;;
35424;SDS011;21537;48.226;16.400;2022-07-22T02:46:42;9.27;;;7.57;;
35424;SDS011;21537;48.226;16.400;2022-07-22T02:49:13;12.48;;;7.82;;
35424;SDS011;21537;48.226;16.400;2022-07-22T02:51:39;15.70;;;7.95;;
35424;SDS011;21537;48.226;16.400;2022-07-22T02:54:06;9.98;;;7.53;;
35424;SDS011;21537;48.226;16.400;2022-07-22T02:56:32;12.40;;;8.27;;
35424;SDS011;21537;48.226;16.400;2022-07-22T02:58:58;13.32;;;7.13;;
35424;SDS011;21537;48.226;16.400;2022-07-22T03:01:24;14.20;;;7.93;;
35424;SDS011;21537;48.226;16.400;2022-07-22T03:03:54;12.98;;;8.18;;
35424;SDS011;21537;48.226;16.400;2022-07-22T03:06:20;12.90;;;7.85;;
35424;SDS011;21537;48.226;16.400;2022-07-22T03:08:58;11.60;;;8.32;;
35424;SDS011;21537;48.226;16.400;2022-07-22T03:11:25;12.00;;;8.65;;
35424;SDS011;21537;48.226;16.400;2022-07-22T03:13:51;14.75;;;9.27;;
35424;SDS011;21537;48.226;16.400;2022-07-22T03:16:18;10.93;;;8.38;;
35424;SDS011;21537;48.226;16.400;2022-07-22T03:18:44;15.70;;;8.85;;
35424;SDS011;21537;48.226;16.400;2022-07-22T03:21:11;11.35;;;8.48;;
35424;SDS011;21537;48.226;16.400;2022-07-22T03:23:37;11.10;;;8.93;;
35424;SDS011;21537;48.226;16.400;2022-07-22T03:26:03;13.07;;;8.35;;
35424;SDS011;21537;48.226;16.400;2022-07-22T03:28:29;11.30;;;8.65;;
35424;SDS011;21537;48.226;16.400;2022-07-22T03:30:55;16.02;;;9.07;;
35424;SDS011;21537;48.226;16.400;2022-07-22T03:33:21;12.70;;;8.90;;
35424;SDS011;21537;48.226;16.400;2022-07-22T03:35:47;12.82;;;8.75;;
35424;SDS011;21537;48.226;16.400;2022-07-22T03:38:13;15.68;;;8.95;;
35424;SDS011;21537;48.226;16.400;2022-07-22T03:40:39;15.18;;;8.55;;
35424;SDS011;21537;48.226;16.400;2022-07-22T03:43:04;17.52;;;9.65;;
35424;SDS011;21537;48.226;16.400;2022-07-22T03:45:31;14.82;;;9.93;;
35424;SDS011;21537;48.226;16.400;2022-07-22T03:47:57;12.13;;;8.85;;
35424;SDS011;21537;48.226;16.400;2022-07-22T03:50:26;12.10;;;9.20;;
35424;SDS011;21537;48.226;16.400;2022-07-22T03:52:53;12.45;;;9.23;;
35424;SDS011;21537;48.226;16.400;2022-07-22T03:55:19;13.32;;;8.95;;
35424;SDS011;21537;48.226;16.400;2022-07-22T03:57:49;17.65;;;8.93;;
35424;SDS011;21537;48.226;16.400;2022-07-22T04:00:28;11.70;;;8.77;;
35424;SDS011;21537;48.226;16.400;2022-07-22T04:02:55;13.80;;;8.57;;
35424;SDS011;21537;48.226;16.400;2022-07-22T04:05:44;15.02;;;9.65;;
35424;SDS011;21537;48.226;16.400;2022-07-22T04:08:12;14.57;;;9.15;;
35424;SDS011;21537;48.226;16.400;2022-07-22T04:10:38;15.05;;;8.77;;
35424;SDS011;21537;48.226;16.400;2022-07-22T04:13:05;11.88;;;9.23;;
35424;SDS011;21537;48.226;16.400;2022-07-22T04:15:49;18.98;;;9.55;;
35424;SDS011;21537;48.226;16.400;2022-07-22T04:18:15;11.63;;;8.75;;
35424;SDS011;21537;48.226;16.400;2022-07-22T04:20:43;13.00;;;9.00;;
35424;SDS011;21537;48.226;16.400;2022-07-22T04:23:38;13.07;;;8.73;;
35424;SDS011;21537;48.226;16.400;2022-07-22T04:26:17;15.52;;;8.55;;
35424;SDS011;21537;48.226;16.400;2022-07-22T04:28:43;16.40;;;9.23;;
35424;SDS011;21537;48.226;16.400;2022-07-22T04:31:09;11.88;;;9.07;;
35424;SDS011;21537;48.226;16.400;2022-07-22T04:33:38;15.13;;;9.15;;
35424;SDS011;21537;48.226;16.400;2022-07-22T04:36:03;16.73;;;9.23;;
35424;SDS011;21537;48.226;16.400;2022-07-22T04:38:30;13.38;;;8.57;;
35424;SDS011;21537;48.226;16.400;2022-07-22T04:41:01;13.35;;;8.75;;
35424;SDS011;21537;48.226;16.400;2022-07-22T04:43:26;15.32;;;8.88;;
35424;SDS011;21537;48.226;16.400;2022-07-22T04:45:52;11.48;;;8.52;;
35424;SDS011;21537;48.226;16.400;2022-07-22T04:48:19;13.52;;;9.10;;
35424;SDS011;21537;48.226;16.400;2022-07-22T04:50:46;13.15;;;9.30;;
35424;SDS011;21537;48.226;16.400;2022-07-22T04:53:12;17.75;;;9.10;;
35424;SDS011;21537;48.226;16.400;2022-07-22T04:55:38;18.85;;;8.50;;
35424;SDS011;21537;48.226;16.400;2022-07-22T04:58:06;16.10;;;8.75;;
35424;SDS011;21537;48.226;16.400;2022-07-22T05:00:32;17.50;;;9.70;;
35424;SDS011;21537;48.226;16.400;2022-07-22T05:02:58;18.45;;;8.32;;
35424;SDS011;21537;48.226;16.400;2022-07-22T05:05:24;12.85;;;8.88;;
35424;SDS011;21537;48.226;16.400;2022-07-22T05:07:51;17.83;;;9.20;;
35424;SDS011;21537;48.226;16.400;2022-07-22T05:10:17;18.02;;;9.23;;
35424;SDS011;21537;48.226;16.400;2022-07-22T05:12:43;15.63;;;8.90;;
35424;SDS011;21537;48.226;16.400;2022-07-22T05:15:10;13.70;;;8.85;;
35424;SDS011;21537;48.226;16.400;2022-07-22T05:17:36;12.88;;;8.55;;
35424;SDS011;21537;48.226;16.400;2022-07-22T05:20:15;10.70;;;8.35;;
35424;SDS011;21537;48.226;16.400;2022-07-22T05:22:42;10.52;;;8.50;;
35424;SDS011;21537;48.226;16.400;2022-07-22T05:25:13;10.05;;;8.40;;
35424;SDS011;21537;48.226;16.400;2022-07-22T05:27:48;14.20;;;9.10;;
35424;SDS011;21537;48.226;16.400;2022-07-22T05:30:24;15.65;;;8.50;;
35424;SDS011;21537;48.226;16.400;2022-07-22T05:32:50;16.15;;;8.80;;
35424;SDS011;21537;48.226;16.400;2022-07-22T05:37:50;17.80;;;8.80;;
35424;SDS011;21537;48.226;16.400;2022-07-22T05:40:17;14.75;;;8.75;;
35424;SDS011;21537;48.226;16.400;2022-07-22T05:42:44;14.68;;;8.70;;
35424;SDS011;21537;48.226;16.400;2022-07-22T05:45:09;18.48;;;8.35;;
35424;SDS011;21537;48.226;16.400;2022-07-22T05:47:36;13.77;;;8.45;;
35424;SDS011;21537;48.226;16.400;2022-07-22T05:50:02;15.57;;;8.40;;
35424;SDS011;21537;48.226;16.400;2022-07-22T05:52:31;9.88;;;7.65;;
35424;SDS011;21537;48.226;16.400;2022-07-22T05:55:00;12.68;;;8.13;;
35424;SDS011;21537;48.226;16.400;2022-07-22T05:57:26;11.88;;;8.52;;
35424;SDS011;21537;48.226;16.400;2022-07-22T05:59:53;19.13;;;7.85;;
35424;SDS011;21537;48.226;16.400;2022-07-22T06:02:19;10.75;;;7.75;;
35424;SDS011;21537;48.226;16.400;2022-07-22T06:04:47;12.50;;;8.18;;
35424;SDS011;21537;48.226;16.400;2022-07-22T06:07:15;11.10;;;8.15;;
35424;SDS011;21537;48.226;16.400;2022-07-22T06:09:42;11.38;;;7.95;;
35424;SDS011;21537;48.226;16.400;2022-07-22T06:12:10;10.95;;;8.15;;
35424;SDS011;21537;48.226;16.400;2022-07-22T06:14:36;11.20;;;8.05;;
35424;SDS011;21537;48.226;16.400;2022-07-22T06:17:03;12.20;;;8.57;;
35424;SDS011;21537;48.226;16.400;2022-07-22T06:19:29;13.82;;;7.85;;
35424;SDS011;21537;48.226;16.400;2022-07-22T06:21:55;11.82;;;8.05;;
35424;SDS011;21537;48.226;16.400;2022-07-22T06:24:21;12.30;;;8.00;;
35424;SDS011;21537;48.226;16.400;2022-07-22T06:26:47;9.48;;;7.72;;
35424;SDS011;21537;48.226;16.400;2022-07-22T06:29:14;12.30;;;7.75;;
35424;SDS011;21537;48.226;16.400;2022-07-22T06:31:40;9.18;;;7.60;;
35424;SDS011;21537;48.226;16.400;2022-07-22T06:34:06;10.65;;;8.23;;
35424;SDS011;21537;48.226;16.400;2022-07-22T06:36:48;11.32;;;7.88;;
35424;SDS011;21537;48.226;16.400;2022-07-22T06:39:14;14.13;;;7.45;;
35424;SDS011;21537;48.226;16.400;2022-07-22T06:41:40;16.73;;;8.38;;
35424;SDS011;21537;48.226;16.400;2022-07-22T06:44:37;12.50;;;8.25;;
35424;SDS011;21537;48.226;16.400;2022-07-22T06:47:11;9.80;;;7.57;;
35424;SDS011;21537;48.226;16.400;2022-07-22T06:49:38;14.10;;;8.15;;
35424;SDS011;21537;48.226;16.400;2022-07-22T06:52:04;14.80;;;8.18;;
35424;SDS011;21537;48.226;16.400;2022-07-22T06:54:30;10.95;;;7.70;;
35424;SDS011;21537;48.226;16.400;2022-07-22T06:56:58;13.18;;;9.40;;
35424;SDS011;21537;48.226;16.400;2022-07-22T06:59:29;14.00;;;8.00;;
35424;SDS011;21537;48.226;16.400;2022-07-22T07:01:56;11.98;;;8.35;;
35424;SDS011;21537;48.226;16.400;2022-07-22T07:04:23;11.95;;;8.30;;
35424;SDS011;21537;48.226;16.400;2022-07-22T07:06:49;11.50;;;8.60;;
35424;SDS011;21537;48.226;16.400;2022-07-22T07:09:23;12.50;;;8.27;;
35424;SDS011;21537;48.226;16.400;2022-07-22T07:12:01;14.60;;;8.80;;
35424;SDS011;21537;48.226;16.400;2022-07-22T07:14:45;13.43;;;8.63;;
35424;SDS011;21537;48.226;16.400;2022-07-22T07:17:11;10.77;;;8.82;;
35424;SDS011;21537;48.226;16.400;2022-07-22T07:19:38;9.85;;;8.10;;
35424;SDS011;21537;48.226;16.400;2022-07-22T07:22:04;10.52;;;8.50;;
35424;SDS011;21537;48.226;16.400;2022-07-22T07:24:30;11.40;;;8.30;;
35424;SDS011;21537;48.226;16.400;2022-07-22T07:26:55;15.48;;;8.65;;
35424;SDS011;21537;48.226;16.400;2022-07-22T07:29:22;12.00;;;8.75;;
35424;SDS011;21537;48.226;16.400;2022-07-22T07:31:52;12.73;;;9.43;;
35424;SDS011;21537;48.226;16.400;2022-07-22T07:34:20;13.60;;;8.52;;
35424;SDS011;21537;48.226;16.400;2022-07-22T07:36:46;11.95;;;8.77;;
35424;SDS011;21537;48.226;16.400;2022-07-22T07:39:13;11.27;;;8.18;;
35424;SDS011;21537;48.226;16.400;2022-07-22T07:41:39;16.27;;;7.90;;
35424;SDS011;21537;48.226;16.400;2022-07-22T07:44:06;15.30;;;9.25;;
35424;SDS011;21537;48.226;16.400;2022-07-22T07:46:32;14.50;;;8.75;;
35424;SDS011;21537;48.226;16.400;2022-07-22T07:48:58;11.85;;;8.05;;
35424;SDS011;21537;48.226;16.400;2022-07-22T07:51:24;16.08;;;8.93;;
35424;SDS011;21537;48.226;16.400;2022-07-22T07:53:49;11.50;;;8.65;;
35424;SDS011;21537;48.226;16.400;2022-07-22T07:56:16;11.60;;;8.43;;
35424;SDS011;21537;48.226;16.400;2022-07-22T07:58:42;16.00;;;8.70;;
35424;SDS011;21537;48.226;16.400;2022-07-22T08:01:08;10.77;;;8.43;;
35424;SDS011;21537;48.226;16.400;2022-07-22T08:03:35;14.35;;;9.52;;
35424;SDS011;21537;48.226;16.400;2022-07-22T08:06:01;15.27;;;9.60;;
35424;SDS011;21537;48.226;16.400;2022-07-22T08:08:28;13.63;;;8.88;;
35424;SDS011;21537;48.226;16.400;2022-07-22T08:10:56;14.10;;;8.77;;
35424;SDS011;21537;48.226;16.400;2022-07-22T08:13:30;11.85;;;9.13;;
35424;SDS011;21537;48.226;16.400;2022-07-22T08:16:06;9.85;;;8.18;;
35424;SDS011;21537;48.226;16.400;2022-07-22T08:18:33;14.23;;;8.75;;
35424;SDS011;21537;48.226;16.400;2022-07-22T08:20:59;15.57;;;9.13;;
35424;SDS011;21537;48.226;16.400;2022-07-22T08:23:37;12.38;;;9.40;;
35424;SDS011;21537;48.226;16.400;2022-07-22T08:26:03;13.98;;;9.15;;
35424;SDS011;21537;48.226;16.400;2022-07-22T08:28:29;12.75;;;8.80;;
35424;SDS011;21537;48.226;16.400;2022-07-22T08:30:55;16.08;;;9.32;;
35424;SDS011;21537;48.226;16.400;2022-07-22T08:33:22;11.13;;;7.97;;
35424;SDS011;21537;48.226;16.400;2022-07-22T08:35:47;12.88;;;8.95;;
35424;SDS011;21537;48.226;16.400;2022-07-22T08:38:13;10.85;;;7.97;;
35424;SDS011;21537;48.226;16.400;2022-07-22T08:40:39;16.75;;;9.30;;
35424;SDS011;21537;48.226;16.400;2022-07-22T08:43:06;12.07;;;8.63;;
35424;SDS011;21537;48.226;16.400;2022-07-22T08:45:33;14.88;;;8.93;;
35424;SDS011;21537;48.226;16.400;2022-07-22T08:47:59;10.90;;;9.18;;
35424;SDS011;21537;48.226;16.400;2022-07-22T08:50:43;11.07;;;8.75;;
35424;SDS011;21537;48.226;16.400;2022-07-22T08:53:13;12.90;;;8.75;;
35424;SDS011;21537;48.226;16.400;2022-07-22T08:55:42;13.10;;;9.20;;
35424;SDS011;21537;48.226;16.400;2022-07-22T08:58:13;11.90;;;8.68;;
35424;SDS011;21537;48.226;16.400;2022-07-22T09:00:40;11.10;;;8.50;;
35424;SDS011;21537;48.226;16.400;2022-07-22T09:03:16;11.60;;;7.90;;
35424;SDS011;21537;48.226;16.400;2022-07-22T09:05:50;10.77;;;7.95;;
35424;SDS011;21537;48.226;16.400;2022-07-22T09:08:17;10.68;;;8.15;;
35424;SDS011;21537;48.226;16.400;2022-07-22T09:11:14;9.60;;;8.60;;
35424;SDS011;21537;48.226;16.400;2022-07-22T09:14:16;12.10;;;7.95;;
35424;SDS011;21537;48.226;16.400;2022-07-22T09:16:51;11.68;;;8.32;;
35424;SDS011;21537;48.226;16.400;2022-07-22T09:19:35;9.90;;;8.50;;
35424;SDS011;21537;48.226;16.400;2022-07-22T09:22:39;12.82;;;7.93;;
35424;SDS011;21537;48.226;16.400;2022-07-22T09:25:18;16.08;;;8.18;;
35424;SDS011;21537;48.226;16.400;2022-07-22T09:28:13;11.82;;;8.57;;
35424;SDS011;21537;48.226;16.400;2022-07-22T09:31:00;13.07;;;7.75;;
35424;SDS011;21537;48.226;16.400;2022-07-22T09:33:30;14.35;;;7.53;;
35424;SDS011;21537;48.226;16.400;2022-07-22T09:36:16;10.48;;;8.32;;
35424;SDS011;21537;48.226;16.400;2022-07-22T09:38:49;11.75;;;8.70;;
35424;SDS011;21537;48.226;16.400;2022-07-22T09:41:57;12.27;;;8.70;;
35424;SDS011;21537;48.226;16.400;2022-07-22T09:44:32;12.20;;;7.65;;
35424;SDS011;21537;48.226;16.400;2022-07-22T09:47:28;13.60;;;7.45;;
35424;SDS011;21537;48.226;16.400;2022-07-22T09:50:14;9.13;;;7.05;;
35424;SDS011;21537;48.226;16.400;2022-07-22T09:53:06;11.95;;;7.80;;
35424;SDS011;21537;48.226;16.400;2022-07-22T09:55:38;9.45;;;7.22;;
35424;SDS011;21537;48.226;16.400;2022-07-22T09:58:05;8.73;;;7.65;;
35424;SDS011;21537;48.226;16.400;2022-07-22T10:00:33;11.27;;;7.72;;
35424;SDS011;21537;48.226;16.400;2022-07-22T10:03:02;9.68;;;7.43;;
35424;SDS011;21537;48.226;16.400;2022-07-22T10:05:33;8.05;;;7.13;;
35424;SDS011;21537;48.226;16.400;2022-07-22T10:08:09;8.88;;;7.00;;
35424;SDS011;21537;48.226;16.400;2022-07-22T10:10:42;12.02;;;8.18;;
35424;SDS011;21537;48.226;16.400;2022-07-22T10:13:09;9.48;;;6.82;;
35424;SDS011;21537;48.226;16.400;2022-07-22T10:15:38;11.60;;;6.75;;
35424;SDS011;21537;48.226;16.400;2022-07-22T10:18:14;10.10;;;6.38;;
35424;SDS011;21537;48.226;16.400;2022-07-22T10:21:17;7.82;;;7.03;;
35424;SDS011;21537;48.226;16.400;2022-07-22T10:24:07;7.55;;;5.85;;
35424;SDS011;21537;48.226;16.400;2022-07-22T10:26:51;9.00;;;5.80;;
35424;SDS011;21537;48.226;16.400;2022-07-22T10:34:43;7.05;;;5.75;;
35424;SDS011;21537;48.226;16.400;2022-07-22T10:45:25;9.15;;;5.78;;
35424;SDS011;21537;48.226;16.400;2022-07-22T10:48:02;9.43;;;5.35;;
35424;SDS011;21537;48.226;16.400;2022-07-22T10:53:03;5.68;;;5.03;;
35424;SDS011;21537;48.226;16.400;2022-07-22T10:55:30;9.13;;;5.75;;
35424;SDS011;21537;48.226;16.400;2022-07-22T10:57:57;11.32;;;5.53;;
35424;SDS011;21537;48.226;16.400;2022-07-22T11:00:22;9.00;;;5.22;;
35424;SDS011;21537;48.226;16.400;2022-07-22T11:02:49;9.93;;;5.25;;
35424;SDS011;21537;48.226;16.400;2022-07-22T11:05:23;8.82;;;5.25;;
35424;SDS011;21537;48.226;16.400;2022-07-22T11:07:55;10.55;;;5.13;;
35424;SDS011;21537;48.226;16.400;2022-07-22T11:10:21;5.82;;;5.22;;
35424;SDS011;21537;48.226;16.400;2022-07-22T11:12:48;5.75;;;4.75;;
35424;SDS011;21537;48.226;16.400;2022-07-22T11:15:15;7.80;;;5.00;;
35424;SDS011;21537;48.226;16.400;2022-07-22T11:17:41;7.13;;;5.03;;
35424;SDS011;21537;48.226;16.400;2022-07-22T11:20:08;5.93;;;5.25;;
35424;SDS011;21537;48.226;16.400;2022-07-22T11:22:35;9.65;;;4.82;;
35424;SDS011;21537;48.226;16.400;2022-07-22T11:25:05;6.43;;;4.75;;
35424;SDS011;21537;48.226;16.400;2022-07-22T11:27:34;7.25;;;5.18;;
35424;SDS011;21537;48.226;16.400;2022-07-22T11:30:00;7.85;;;5.25;;
35424;SDS011;21537;48.226;16.400;2022-07-22T11:32:29;5.55;;;4.95;;
35424;SDS011;21537;48.226;16.400;2022-07-22T11:35:10;8.25;;;5.53;;
35424;SDS011;21537;48.226;16.400;2022-07-22T11:37:38;5.47;;;4.97;;
35424;SDS011;21537;48.226;16.400;2022-07-22T11:40:05;7.75;;;4.95;;
35424;SDS011;21537;48.226;16.400;2022-07-22T11:42:32;13.23;;;5.47;;
35424;SDS011;21537;48.226;16.400;2022-07-22T11:44:58;5.35;;;4.85;;
35424;SDS011;21537;48.226;16.400;2022-07-22T11:47:25;6.60;;;4.95;;
35424;SDS011;21537;48.226;16.400;2022-07-22T11:49:51;8.85;;;4.93;;
35424;SDS011;21537;48.226;16.400;2022-07-22T11:52:17;6.07;;;4.85;;
35424;SDS011;21537;48.226;16.400;2022-07-22T11:54:43;9.98;;;5.07;;
35424;SDS011;21537;48.226;16.400;2022-07-22T11:57:10;7.07;;;5.18;;
35424;SDS011;21537;48.226;16.400;2022-07-22T11:59:37;7.20;;;4.93;;
35424;SDS011;21537;48.226;16.400;2022-07-22T12:02:03;9.35;;;5.22;;
35424;SDS011;21537;48.226;16.400;2022-07-22T12:04:31;8.00;;;5.38;;
35424;SDS011;21537;48.226;16.400;2022-07-22T12:06:59;7.57;;;4.85;;
35424;SDS011;21537;48.226;16.400;2022-07-22T12:09:30;5.32;;;4.55;;
35424;SDS011;21537;48.226;16.400;2022-07-22T12:11:59;8.83;;;5.33;;
35424;SDS011;21537;48.226;16.400;2022-07-22T12:14:26;7.60;;;5.18;;
35424;SDS011;21537;48.226;16.400;2022-07-22T12:19:29;7.90;;;5.38;;
35424;SDS011;21537;48.226;16.400;2022-07-22T12:22:00;7.90;;;4.93;;
35424;SDS011;21537;48.226;16.400;2022-07-22T12:25:00;6.25;;;5.07;;
35424;SDS011;21537;48.226;16.400;2022-07-22T12:27:27;7.72;;;5.63;;
35424;SDS011;21537;48.226;16.400;2022-07-22T12:29:55;5.88;;;5.28;;
35424;SDS011;21537;48.226;16.400;2022-07-22T12:34:54;6.03;;;5.43;;
35424;SDS011;21537;48.226;16.400;2022-07-22T12:37:25;10.65;;;5.10;;
35424;SDS011;21537;48.226;16.400;2022-07-22T12:39:57;8.63;;;5.30;;
35424;SDS011;21537;48.226;16.400;2022-07-22T12:42:24;7.28;;;5.15;;
35424;SDS011;21537;48.226;16.400;2022-07-22T12:47:43;5.90;;;4.78;;
35424;SDS011;21537;48.226;16.400;2022-07-22T12:50:40;9.35;;;5.50;;
35424;SDS011;21537;48.226;16.400;2022-07-22T12:53:13;6.57;;;5.28;;
35424;SDS011;21537;48.226;16.400;2022-07-22T12:55:52;7.03;;;5.45;;
35424;SDS011;21537;48.226;16.400;2022-07-22T12:58:28;9.60;;;5.32;;
35424;SDS011;21537;48.226;16.400;2022-07-22T13:00:56;9.68;;;5.18;;
35424;SDS011;21537;48.226;16.400;2022-07-22T13:03:27;5.43;;;4.82;;
35424;SDS011;21537;48.226;16.400;2022-07-22T13:05:58;5.78;;;5.25;;
35424;SDS011;21537;48.226;16.400;2022-07-22T13:08:41;7.75;;;5.75;;
35424;SDS011;21537;48.226;16.400;2022-07-22T13:11:18;7.20;;;5.47;;
35424;SDS011;21537;48.226;16.400;2022-07-22T13:13:48;6.75;;;4.88;;
35424;SDS011;21537;48.226;16.400;2022-07-22T13:16:19;7.40;;;5.00;;
35424;SDS011;21537;48.226;16.400;2022-07-22T13:18:46;5.35;;;4.85;;
35424;SDS011;21537;48.226;16.400;2022-07-22T13:21:15;6.72;;;5.18;;
35424;SDS011;21537;48.226;16.400;2022-07-22T13:23:41;6.72;;;4.85;;
35424;SDS011;21537;48.226;16.400;2022-07-22T13:26:07;5.63;;;4.82;;
35424;SDS011;21537;48.226;16.400;2022-07-22T13:28:34;9.98;;;5.78;;
35424;SDS011;21537;48.226;16.400;2022-07-22T13:31:00;6.30;;;5.45;;
35424;SDS011;21537;48.226;16.400;2022-07-22T13:33:27;6.10;;;5.50;;
35424;SDS011;21537;48.226;16.400;2022-07-22T13:35:52;6.78;;;5.18;;
35424;SDS011;21537;48.226;16.400;2022-07-22T13:38:22;6.55;;;5.82;;
35424;SDS011;21537;48.226;16.400;2022-07-22T13:40:48;5.75;;;5.10;;
35424;SDS011;21537;48.226;16.400;2022-07-22T13:43:17;6.78;;;5.38;;
35424;SDS011;21537;48.226;16.400;2022-07-22T13:45:43;11.93;;;5.47;;
35424;SDS011;21537;48.226;16.400;2022-07-22T13:48:09;6.85;;;5.28;;
35424;SDS011;21537;48.226;16.400;2022-07-22T13:50:35;7.57;;;5.20;;
35424;SDS011;21537;48.226;16.400;2022-07-22T13:53:01;8.13;;;4.90;;
35424;SDS011;21537;48.226;16.400;2022-07-22T13:55:27;9.27;;;5.20;;
35424;SDS011;21537;48.226;16.400;2022-07-22T13:57:54;7.47;;;5.47;;
35424;SDS011;21537;48.226;16.400;2022-07-22T14:00:23;7.30;;;5.30;;
35424;SDS011;21537;48.226;16.400;2022-07-22T14:02:49;6.72;;;4.93;;
35424;SDS011;21537;48.226;16.400;2022-07-22T14:05:15;7.53;;;5.78;;
35424;SDS011;21537;48.226;16.400;2022-07-22T14:07:42;6.63;;;5.70;;
35424;SDS011;21537;48.226;16.400;2022-07-22T14:10:08;9.38;;;5.68;;
35424;SDS011;21537;48.226;16.400;2022-07-22T14:12:35;8.40;;;5.63;;
35424;SDS011;21537;48.226;16.400;2022-07-22T14:15:01;6.60;;;5.43;;
35424;SDS011;21537;48.226;16.400;2022-07-22T14:17:27;7.72;;;5.40;;
35424;SDS011;21537;48.226;16.400;2022-07-22T14:19:52;7.00;;;5.35;;
35424;SDS011;21537;48.226;16.400;2022-07-22T14:22:19;5.97;;;5.38;;
35424;SDS011;21537;48.226;16.400;2022-07-22T14:24:45;7.10;;;5.57;;
35424;SDS011;21537;48.226;16.400;2022-07-22T14:27:11;7.63;;;5.65;;
35424;SDS011;21537;48.226;16.400;2022-07-22T14:29:38;6.03;;;5.43;;
35424;SDS011;21537;48.226;16.400;2022-07-22T14:32:04;12.40;;;5.55;;
35424;SDS011;21537;48.226;16.400;2022-07-22T14:34:30;10.32;;;5.55;;
35424;SDS011;21537;48.226;16.400;2022-07-22T14:36:56;9.85;;;6.00;;
35424;SDS011;21537;48.226;16.400;2022-07-22T14:39:22;8.23;;;5.80;;
35424;SDS011;21537;48.226;16.400;2022-07-22T14:41:48;8.27;;;6.10;;
35424;SDS011;21537;48.226;16.400;2022-07-22T14:44:14;8.68;;;6.75;;
35424;SDS011;21537;48.226;16.400;2022-07-22T14:46:40;10.27;;;5.75;;
35424;SDS011;21537;48.226;16.400;2022-07-22T14:49:06;12.13;;;5.95;;
35424;SDS011;21537;48.226;16.400;2022-07-22T14:51:32;9.38;;;6.10;;
35424;SDS011;21537;48.226;16.400;2022-07-22T14:53:58;6.10;;;5.47;;
35424;SDS011;21537;48.226;16.400;2022-07-22T14:56:24;9.65;;;5.40;;
35424;SDS011;21537;48.226;16.400;2022-07-22T14:58:50;6.28;;;5.68;;
35424;SDS011;21537;48.226;16.400;2022-07-22T15:01:15;9.07;;;5.82;;
35424;SDS011;21537;48.226;16.400;2022-07-22T15:03:41;8.38;;;5.70;;